createdAt,value
2022-11-22T00:01:04.723Z,18.08
2022-11-22T00:03:34.310Z,18.23
2022-11-22T00:06:03.620Z,16.23
2022-11-22T00:08:33.046Z,13.45
2022-11-22T00:11:07.123Z,13.50
2022-11-22T00:13:41.428Z,9.98
2022-11-22T00:16:12.502Z,17.27
2022-11-22T00:21:16.402Z,14.43
2022-11-22T00:23:45.461Z,14.52
2022-11-22T00:26:19.749Z,17.35
2022-11-22T00:28:49.418Z,11.73
2022-11-22T00:31:20.397Z,15.90
2022-11-22T00:33:49.548Z,15.77
2022-11-22T00:36:18.932Z,15.68
2022-11-22T00:38:53.171Z,16.92
2022-11-22T00:41:22.417Z,11.55
2022-11-22T00:43:51.523Z,16.38
2022-11-22T00:46:22.679Z,15.50
2022-11-22T00:48:51.889Z,15.13
2022-11-22T00:51:21.033Z,9.70
2022-11-22T00:53:55.256Z,12.55
2022-11-22T00:56:24.453Z,12.75
2022-11-22T00:58:53.513Z,13.57
2022-11-22T01:01:24.646Z,16.02
2022-11-22T01:03:53.888Z,12.82
2022-11-22T01:06:25.811Z,12.32
2022-11-22T01:08:55.423Z,13.27
2022-11-22T01:11:24.517Z,15.98
2022-11-22T01:13:53.713Z,13.52
2022-11-22T01:16:24.826Z,19.75
2022-11-22T01:18:59.084Z,13.80
2022-11-22T01:21:28.357Z,11.88
2022-11-22T01:23:57.647Z,11.43
2022-11-22T01:26:26.890Z,14.23
2022-11-22T01:28:56.427Z,13.32
2022-11-22T01:31:32.782Z,9.70
2022-11-22T01:34:02.381Z,11.27
2022-11-22T01:36:31.446Z,12.75
2022-11-22T01:39:01.011Z,8.20
2022-11-22T01:41:30.151Z,16.75
2022-11-22T01:43:59.554Z,11.05
2022-11-22T01:46:36.482Z,18.58
2022-11-22T01:49:08.520Z,11.98
2022-11-22T01:51:46.039Z,21.45
2022-11-22T01:54:19.404Z,17.27
2022-11-22T01:57:02.855Z,14.20
2022-11-22T01:59:34.781Z,14.13
2022-11-22T02:04:46.878Z,16.65
2022-11-22T02:07:21.608Z,16.85
2022-11-22T02:09:53.893Z,17.45
2022-11-22T02:12:33.498Z,17.70
2022-11-22T02:15:08.823Z,17.60
2022-11-22T02:17:37.961Z,13.38
2022-11-22T02:20:11.138Z,19.20
2022-11-22T02:22:53.403Z,11.77
2022-11-22T02:25:32.202Z,19.98
2022-11-22T02:28:03.638Z,14.27
2022-11-22T02:30:33.199Z,20.35
2022-11-22T02:33:02.259Z,13.27
2022-11-22T02:35:37.139Z,16.85
2022-11-22T02:38:09.711Z,12.38
2022-11-22T02:40:42.482Z,13.35
2022-11-22T02:43:21.491Z,17.10
2022-11-22T02:45:50.933Z,14.43
2022-11-22T02:48:20.808Z,14.02
2022-11-22T02:50:50.112Z,16.13
2022-11-22T02:53:24.199Z,14.27
2022-11-22T02:55:53.442Z,15.50
2022-11-22T02:58:29.511Z,18.90
2022-11-22T03:00:58.810Z,23.95
2022-11-22T03:03:27.998Z,20.13
2022-11-22T03:06:07.847Z,21.13
2022-11-22T03:08:36.926Z,14.98
2022-11-22T03:11:08.676Z,10.43
2022-11-22T03:16:09.379Z,16.17
2022-11-22T03:18:39.080Z,17.70
2022-11-22T03:21:10.736Z,12.10
2022-11-22T03:23:40.396Z,15.20
2022-11-22T03:26:10.707Z,21.08
2022-11-22T03:28:42.108Z,13.77
2022-11-22T03:31:11.461Z,10.80
2022-11-22T03:33:40.628Z,12.25
2022-11-22T03:36:09.868Z,23.42
2022-11-22T03:38:39.004Z,15.32
2022-11-22T03:41:08.274Z,16.27
2022-11-22T03:43:37.470Z,18.35
2022-11-22T03:46:08.781Z,13.98
2022-11-22T03:48:37.917Z,18.30
2022-11-22T03:51:08.152Z,10.23
2022-11-22T03:53:37.323Z,11.20
2022-11-22T03:56:07.342Z,25.75
2022-11-22T04:01:25.472Z,17.13
2022-11-22T04:03:59.844Z,20.95
2022-11-22T04:06:29.066Z,26.98
2022-11-22T04:08:58.242Z,15.90
2022-11-22T04:11:34.339Z,15.32
2022-11-22T04:14:16.348Z,15.02
2022-11-22T04:19:16.528Z,16.67
2022-11-22T04:21:43.564Z,9.93
2022-11-22T04:27:01.461Z,9.70
2022-11-22T04:29:30.781Z,13.60
2022-11-22T04:32:15.085Z,18.48
2022-11-22T04:34:44.319Z,16.58
2022-11-22T04:37:13.440Z,16.67
2022-11-22T04:39:42.720Z,19.88
2022-11-22T04:42:24.715Z,12.38
2022-11-22T04:44:59.095Z,17.27
2022-11-22T04:47:48.971Z,18.00
2022-11-22T04:50:32.937Z,14.35
2022-11-22T04:53:02.095Z,20.33
2022-11-22T04:55:31.194Z,13.32
2022-11-22T04:58:00.632Z,17.27
2022-11-22T05:00:30.370Z,13.43
2022-11-22T05:03:07.987Z,14.05
2022-11-22T05:05:38.270Z,15.52
2022-11-22T05:08:15.033Z,16.05
2022-11-22T05:10:59.131Z,20.58
2022-11-22T05:16:10.331Z,16.05
2022-11-22T05:18:45.891Z,12.82
2022-11-22T05:21:20.164Z,16.45
2022-11-22T05:23:56.104Z,12.10
2022-11-22T05:26:26.902Z,14.55
2022-11-22T05:28:57.565Z,15.82
2022-11-22T05:31:28.313Z,11.02
2022-11-22T05:33:59.680Z,13.55
2022-11-22T05:36:33.979Z,16.10
2022-11-22T05:39:03.543Z,14.75
2022-11-22T05:41:32.770Z,12.48
2022-11-22T05:44:02.059Z,7.25
2022-11-22T05:46:32.149Z,12.13
2022-11-22T05:51:38.913Z,11.23
2022-11-22T05:54:07.997Z,10.43
2022-11-22T05:56:37.196Z,12.88
2022-11-22T05:59:06.328Z,7.00
2022-11-22T06:01:35.683Z,9.20
2022-11-22T06:04:12.090Z,8.45
2022-11-22T06:06:41.593Z,6.85
2022-11-22T06:09:10.736Z,8.18
2022-11-22T06:11:40.575Z,10.73
2022-11-22T06:14:11.088Z,12.80
2022-11-22T06:16:40.414Z,9.32
2022-11-22T06:19:12.731Z,10.95
2022-11-22T06:21:42.094Z,9.23
2022-11-22T06:24:12.735Z,10.52
2022-11-22T06:26:42.207Z,9.32
2022-11-22T06:29:11.665Z,12.18
2022-11-22T06:31:40.937Z,9.07
2022-11-22T06:34:15.049Z,8.93
2022-11-22T06:36:44.285Z,10.00
2022-11-22T06:39:13.631Z,6.80
2022-11-22T06:41:47.866Z,7.75
2022-11-22T06:44:17.108Z,6.05
2022-11-22T06:46:46.294Z,8.50
2022-11-22T06:51:57.451Z,7.68
2022-11-22T06:54:26.621Z,8.40
2022-11-22T06:56:55.873Z,8.05
2022-11-22T06:59:25.014Z,8.27
2022-11-22T07:02:07.158Z,7.25
2022-11-22T07:04:56.100Z,5.82
2022-11-22T07:07:27.980Z,6.38
2022-11-22T07:09:57.118Z,6.63
2022-11-22T07:12:31.305Z,5.63
2022-11-22T07:15:00.667Z,6.68
2022-11-22T07:17:30.780Z,5.38
2022-11-22T07:20:02.264Z,4.63
2022-11-22T07:22:33.650Z,5.57
2022-11-22T07:25:08.074Z,6.95
2022-11-22T07:27:37.401Z,5.03
2022-11-22T07:30:07.765Z,4.05
2022-11-22T07:32:37.175Z,4.65
2022-11-22T07:35:10.831Z,4.05
2022-11-22T07:37:40.094Z,6.18
2022-11-22T07:40:11.368Z,4.38
2022-11-22T07:42:41.544Z,4.88
2022-11-22T07:45:12.107Z,5.50
2022-11-22T07:47:41.427Z,4.57
2022-11-22T07:50:17.872Z,4.82
2022-11-22T07:52:47.201Z,4.80
2022-11-22T07:55:16.583Z,5.35
2022-11-22T07:57:48.225Z,5.20
2022-11-22T08:00:18.016Z,5.40
2022-11-22T08:02:52.217Z,5.45
2022-11-22T08:05:23.660Z,5.28
2022-11-22T08:07:54.456Z,7.60
2022-11-22T08:10:24.471Z,5.93
2022-11-22T08:12:53.658Z,6.82
2022-11-22T08:15:23.124Z,5.72
2022-11-22T08:17:52.228Z,5.93
2022-11-22T08:20:23.587Z,5.70
2022-11-22T08:22:52.738Z,6.50
2022-11-22T08:25:21.788Z,6.20
2022-11-22T08:27:51.214Z,6.57
2022-11-22T08:30:20.476Z,7.43
2022-11-22T08:32:51.168Z,7.95
2022-11-22T08:35:22.853Z,7.70
2022-11-22T08:37:52.135Z,7.53
2022-11-22T08:40:21.137Z,7.15
2022-11-22T08:42:50.439Z,7.50
2022-11-22T08:45:25.041Z,7.63
2022-11-22T08:47:54.230Z,7.45
2022-11-22T08:50:25.352Z,7.40
2022-11-22T08:52:54.592Z,9.02
2022-11-22T08:55:23.740Z,8.18
2022-11-22T08:57:58.156Z,7.93
2022-11-22T09:00:33.033Z,7.40
2022-11-22T09:03:02.797Z,6.63
2022-11-22T09:05:34.863Z,6.93
2022-11-22T09:08:24.746Z,7.22
2022-11-22T09:10:54.175Z,6.32
2022-11-22T09:13:23.364Z,6.45
2022-11-22T09:15:52.744Z,8.20
2022-11-22T09:18:21.916Z,5.70
2022-11-22T09:21:00.323Z,6.30
2022-11-22T09:23:29.959Z,7.03
2022-11-22T09:26:00.360Z,6.28
2022-11-22T09:28:30.390Z,7.07
2022-11-22T09:31:08.379Z,4.18
2022-11-22T09:33:39.702Z,5.65
2022-11-22T09:36:13.467Z,6.07
2022-11-22T09:38:43.074Z,5.78
2022-11-22T09:41:24.856Z,4.72
2022-11-22T09:44:03.025Z,4.82
2022-11-22T09:46:44.920Z,4.78
2022-11-22T09:49:27.676Z,4.35
2022-11-22T09:52:11.220Z,5.18
2022-11-22T09:54:47.153Z,4.53
2022-11-22T09:57:27.573Z,4.22
2022-11-22T10:00:03.199Z,4.43
2022-11-22T10:03:05.606Z,4.03
2022-11-22T10:05:48.488Z,3.83
2022-11-22T10:08:35.483Z,3.78
2022-11-22T10:11:21.243Z,4.13
2022-11-22T10:13:55.144Z,4.40
2022-11-22T10:16:32.742Z,4.70
2022-11-22T10:19:10.821Z,4.00
2022-11-22T10:21:40.142Z,4.30
2022-11-22T10:24:22.172Z,4.25
2022-11-22T10:26:52.060Z,3.70
2022-11-22T10:29:31.917Z,4.32
2022-11-22T10:32:07.678Z,3.78
2022-11-22T10:34:49.583Z,3.97
2022-11-22T10:37:32.076Z,3.85
2022-11-22T10:40:18.707Z,3.85
2022-11-22T10:43:09.427Z,3.88
2022-11-22T10:45:45.654Z,3.97
2022-11-22T10:48:28.566Z,4.70
2022-11-22T10:51:12.279Z,4.15
2022-11-22T10:54:00.376Z,3.90
2022-11-22T10:56:41.171Z,4.28
2022-11-22T10:59:35.765Z,4.80
2022-11-22T11:02:37.506Z,3.95
2022-11-22T11:05:12.340Z,4.90
2022-11-22T11:07:45.570Z,4.80
2022-11-22T11:10:29.519Z,5.53
2022-11-22T11:13:07.692Z,4.65
2022-11-22T11:15:41.137Z,5.30
2022-11-22T11:18:17.220Z,5.47
2022-11-22T11:20:51.026Z,5.88
2022-11-22T11:23:21.396Z,3.97
2022-11-22T11:25:52.063Z,4.65
2022-11-22T11:28:25.672Z,5.10
2022-11-22T11:30:58.140Z,3.97
2022-11-22T11:33:30.069Z,4.65
2022-11-22T11:36:05.925Z,4.65
2022-11-22T11:38:38.474Z,4.93
2022-11-22T11:41:23.060Z,4.40
2022-11-22T11:43:55.545Z,5.75
2022-11-22T11:46:27.017Z,4.55
2022-11-22T11:48:57.761Z,4.72
2022-11-22T11:51:37.504Z,5.25
2022-11-22T11:54:13.036Z,4.68
2022-11-22T11:56:48.219Z,4.80
2022-11-22T11:59:21.600Z,4.65
2022-11-22T12:01:55.666Z,5.13
2022-11-22T12:04:29.672Z,5.63
2022-11-22T12:07:04.849Z,4.68
2022-11-22T12:09:37.524Z,5.55
2022-11-22T12:12:33.636Z,4.95
2022-11-22T12:15:14.710Z,5.32
2022-11-22T12:17:52.230Z,4.30
2022-11-22T12:20:26.984Z,5.70
2022-11-22T12:23:12.477Z,5.07
2022-11-22T12:25:42.430Z,5.32
2022-11-22T12:28:20.023Z,5.45
2022-11-22T12:31:01.137Z,4.80
2022-11-22T12:33:36.093Z,4.82
2022-11-22T12:36:06.990Z,5.05
2022-11-22T12:38:42.253Z,5.00
2022-11-22T12:41:16.688Z,5.07
2022-11-22T12:43:53.172Z,4.93
2022-11-22T12:46:32.883Z,4.72
2022-11-22T12:55:29.023Z,4.40
2022-11-22T12:58:05.973Z,4.57
2022-11-22T13:00:42.912Z,6.35
2022-11-22T13:03:18.233Z,4.40
2022-11-22T13:05:51.304Z,6.07
2022-11-22T13:08:33.144Z,4.85
2022-11-22T13:11:08.735Z,6.00
2022-11-22T13:13:41.576Z,5.82
2022-11-22T13:16:13.267Z,6.07
2022-11-22T13:18:47.605Z,4.95
2022-11-22T13:21:27.809Z,5.18
2022-11-22T13:24:14.292Z,5.35
2022-11-22T13:26:58.390Z,5.70
2022-11-22T13:29:30.469Z,4.03
2022-11-22T13:34:35.503Z,4.28
2022-11-22T13:37:13.570Z,4.22
2022-11-22T13:39:46.917Z,4.85
2022-11-22T13:42:27.265Z,4.20
2022-11-22T13:45:25.956Z,4.68
2022-11-22T13:47:55.311Z,5.22
2022-11-22T13:51:02.808Z,4.32
2022-11-22T13:53:34.726Z,4.80
2022-11-22T13:56:45.796Z,6.32
2022-11-22T13:59:22.325Z,7.65
2022-11-22T14:02:02.512Z,6.25
2022-11-22T14:04:45.635Z,7.05
2022-11-22T14:07:31.980Z,5.55
2022-11-22T14:10:02.352Z,5.50
2022-11-22T14:13:04.306Z,6.15
2022-11-22T14:16:03.461Z,5.30
2022-11-22T14:18:52.164Z,6.10
2022-11-22T14:21:42.304Z,7.32
2022-11-22T14:24:21.504Z,5.72
2022-11-22T14:27:00.015Z,7.07
2022-11-22T14:30:06.836Z,6.13
2022-11-22T14:32:52.086Z,5.90
2022-11-22T14:35:31.942Z,6.57
2022-11-22T14:38:07.000Z,6.32
2022-11-22T14:40:41.162Z,5.82
2022-11-22T14:43:30.000Z,5.88
2022-11-22T14:46:04.189Z,6.38
2022-11-22T14:48:45.775Z,6.35
2022-11-22T14:51:30.741Z,5.55
2022-11-22T14:54:03.753Z,6.57
2022-11-22T14:56:36.205Z,6.60
2022-11-22T14:59:21.618Z,7.63
2022-11-22T15:02:16.874Z,6.40
2022-11-22T15:09:21.752Z,6.78
2022-11-22T15:11:32.615Z,6.68
2022-11-22T15:14:34.496Z,5.60
2022-11-22T15:57:48.869Z,7.57
2022-11-22T16:00:22.704Z,6.68
2022-11-22T16:02:54.796Z,6.63
2022-11-22T16:06:09.700Z,7.43
2022-11-22T16:08:26.613Z,7.93
2022-11-22T16:11:03.192Z,7.57
2022-11-22T16:13:36.843Z,6.68
2022-11-22T16:16:09.074Z,7.05
2022-11-22T16:18:38.841Z,6.70
2022-11-22T16:21:20.317Z,6.50
2022-11-22T16:23:50.083Z,8.32
2022-11-22T16:26:29.787Z,9.43
2022-11-22T16:29:20.028Z,7.60
2022-11-22T16:31:49.320Z,7.57
2022-11-22T16:34:18.754Z,7.28
2022-11-22T16:36:48.214Z,7.30
2022-11-22T16:39:17.782Z,6.55
2022-11-22T16:41:49.408Z,7.30
2022-11-22T16:44:21.165Z,7.22
2022-11-22T16:46:50.405Z,6.88
2022-11-22T16:49:21.253Z,7.00
2022-11-22T16:51:52.476Z,8.90
2022-11-22T16:54:23.504Z,8.15
2022-11-22T16:56:54.894Z,7.80
2022-11-22T16:59:24.103Z,8.50
2022-11-22T17:01:53.341Z,8.35
2022-11-22T17:04:40.678Z,9.90
2022-11-22T17:07:11.393Z,7.47
2022-11-22T17:09:40.723Z,8.50
2022-11-22T17:12:16.041Z,10.15
2022-11-22T17:14:48.005Z,7.07
2022-11-22T17:19:53.222Z,10.98
2022-11-22T17:22:23.382Z,10.43
2022-11-22T17:24:52.593Z,8.20
2022-11-22T17:27:24.247Z,8.25
2022-11-22T17:29:53.849Z,7.80
2022-11-22T17:32:23.187Z,9.05
2022-11-22T17:34:57.710Z,7.13
2022-11-22T17:37:29.064Z,8.55
2022-11-22T17:40:03.622Z,9.68
2022-11-22T17:42:40.984Z,8.43
2022-11-22T17:45:16.694Z,8.13
2022-11-22T17:47:48.913Z,8.93
2022-11-22T17:50:24.109Z,7.28
2022-11-22T17:52:54.802Z,9.02
2022-11-22T17:55:26.404Z,8.32
2022-11-22T17:58:04.173Z,7.97
2022-11-22T18:00:38.961Z,8.13
2022-11-22T18:03:08.451Z,7.50
2022-11-22T18:05:37.843Z,8.68
2022-11-22T18:08:15.312Z,7.78
2022-11-22T18:10:44.574Z,8.63
2022-11-22T18:13:22.833Z,8.15
2022-11-22T18:16:03.562Z,9.70
2022-11-22T18:18:56.417Z,8.48
2022-11-22T18:21:24.930Z,6.65
2022-11-22T18:23:54.213Z,7.78
2022-11-22T18:26:38.899Z,9.57
2022-11-22T18:32:03.524Z,8.57
2022-11-22T18:34:32.967Z,9.20
2022-11-22T18:37:03.865Z,10.18
2022-11-22T18:39:40.436Z,8.60
2022-11-22T18:42:12.197Z,7.03
2022-11-22T18:44:43.959Z,7.43
2022-11-22T18:47:13.499Z,8.60
2022-11-22T18:49:42.772Z,8.27
2022-11-22T18:52:14.950Z,8.65
2022-11-22T18:54:47.024Z,8.93
2022-11-22T18:57:17.017Z,8.57
2022-11-22T18:59:53.304Z,8.82
2022-11-22T19:02:25.517Z,8.95
2022-11-22T19:04:56.288Z,7.82
2022-11-22T19:07:31.118Z,8.10
2022-11-22T19:10:01.954Z,8.27
2022-11-22T19:12:32.563Z,7.97
2022-11-22T19:15:03.855Z,7.15
2022-11-22T19:17:34.167Z,7.53
2022-11-22T19:20:03.693Z,8.85
2022-11-22T19:22:32.982Z,7.60
2022-11-22T19:25:02.580Z,7.47
2022-11-22T19:27:32.780Z,8.30
2022-11-22T19:30:04.146Z,6.45
2022-11-22T19:32:33.570Z,8.00
2022-11-22T19:35:02.865Z,6.22
2022-11-22T19:37:37.346Z,6.10
2022-11-22T19:40:17.873Z,7.82
2022-11-22T19:42:47.284Z,6.90
2022-11-22T19:45:18.665Z,6.85
2022-11-22T19:47:53.379Z,6.15
2022-11-22T19:50:22.819Z,6.60
2022-11-22T19:52:53.259Z,6.85
2022-11-22T19:55:27.496Z,6.55
2022-11-22T19:57:56.741Z,5.80
2022-11-22T20:00:28.502Z,7.80
2022-11-22T20:02:58.992Z,6.60
2022-11-22T20:05:34.124Z,6.72
2022-11-22T20:08:03.340Z,7.57
2022-11-22T20:10:44.515Z,8.43
2022-11-22T20:13:13.727Z,7.13
2022-11-22T20:15:45.307Z,7.95
2022-11-22T20:18:14.471Z,7.32
2022-11-22T20:20:43.731Z,6.00
2022-11-22T20:23:12.860Z,8.77
2022-11-22T20:25:42.398Z,7.93
2022-11-22T20:28:11.823Z,7.55
2022-11-22T20:30:41.070Z,6.05
2022-11-22T20:33:12.699Z,6.78
2022-11-22T20:35:42.143Z,7.72
2022-11-22T20:38:12.829Z,8.57
2022-11-22T20:40:42.323Z,8.40
2022-11-22T20:43:11.686Z,10.25
2022-11-22T20:45:40.916Z,11.77
2022-11-22T20:48:19.773Z,9.70
2022-11-22T20:50:52.857Z,10.23
2022-11-22T20:53:22.283Z,13.10
2022-11-22T20:55:51.476Z,12.60
2022-11-22T20:58:20.954Z,12.32
2022-11-22T21:00:50.299Z,14.68
2022-11-22T21:03:21.773Z,10.93
2022-11-22T21:05:53.828Z,8.48
2022-11-22T21:08:24.089Z,11.60
2022-11-22T21:11:13.718Z,11.40
2022-11-22T21:13:43.384Z,6.55
2022-11-22T21:16:23.205Z,8.32
2022-11-22T21:19:01.856Z,10.07
2022-11-22T21:21:31.879Z,9.82
2022-11-22T21:24:02.563Z,7.97
2022-11-22T21:26:37.093Z,8.88
2022-11-22T21:29:15.959Z,9.85
2022-11-22T21:31:45.600Z,9.60
2022-11-22T21:34:17.004Z,11.70
2022-11-22T21:36:52.981Z,9.88
2022-11-22T21:39:22.217Z,7.85
2022-11-22T21:42:01.567Z,9.23
2022-11-22T21:44:31.062Z,10.00
2022-11-22T21:47:00.397Z,11.13
2022-11-22T21:49:43.217Z,11.82
2022-11-22T21:52:14.523Z,12.80
2022-11-22T21:54:43.745Z,12.90
2022-11-22T21:57:13.782Z,16.02
2022-11-22T21:59:43.003Z,14.60
2022-11-22T22:02:12.391Z,16.15
2022-11-22T22:04:41.763Z,18.15
2022-11-22T22:07:29.635Z,18.50
2022-11-22T22:10:02.353Z,22.10
2022-11-22T22:12:43.508Z,19.73
2022-11-22T22:15:13.930Z,18.23
2022-11-22T22:17:43.647Z,20.05
2022-11-22T22:20:13.609Z,18.77
2022-11-22T22:22:42.817Z,17.23
2022-11-22T22:25:13.885Z,18.55
2022-11-22T22:27:44.243Z,16.27
2022-11-22T22:30:16.393Z,14.33
2022-11-22T22:32:55.583Z,16.83
2022-11-22T22:35:25.078Z,17.48
2022-11-22T22:37:54.485Z,19.45
2022-11-22T22:40:26.051Z,25.83
2022-11-22T22:42:55.290Z,23.90
2022-11-22T22:45:24.489Z,20.38
2022-11-22T22:47:53.679Z,20.35
2022-11-22T22:50:23.136Z,19.60
2022-11-22T22:52:57.984Z,22.15
2022-11-22T22:55:29.291Z,21.50
2022-11-22T22:58:04.024Z,29.38
2022-11-22T23:00:33.258Z,26.83
2022-11-22T23:03:07.536Z,24.92
2022-11-22T23:05:40.221Z,23.05
2022-11-22T23:08:09.479Z,25.13
2022-11-22T23:10:41.775Z,23.98
2022-11-22T23:13:16.957Z,17.80
2022-11-22T23:15:57.993Z,25.50
2022-11-22T23:18:28.036Z,19.73
2022-11-22T23:21:00.608Z,22.70
2022-11-22T23:23:31.271Z,20.00
2022-11-22T23:26:06.183Z,18.10
2022-11-22T23:28:35.638Z,18.23
2022-11-22T23:31:09.212Z,16.27
2022-11-22T23:33:38.824Z,17.42
2022-11-22T23:36:10.294Z,19.67
2022-11-22T23:38:40.057Z,16.95
2022-11-22T23:41:13.802Z,18.73
2022-11-22T23:43:49.329Z,16.52
2022-11-22T23:46:18.556Z,22.83
2022-11-22T23:48:48.529Z,18.38
2022-11-22T23:51:23.108Z,19.38
2022-11-22T23:53:56.814Z,11.80
2022-11-22T23:56:30.003Z,14.50
2022-11-22T23:59:01.061Z,14.45
